createdAt,value
2023-01-31T00:07:58.841Z,99.99
2023-01-31T00:23:08.102Z,99.99
2023-01-31T00:38:08.627Z,99.99
2023-01-31T00:53:09.408Z,99.99
2023-01-31T01:08:11.871Z,99.99
2023-01-31T01:23:12.609Z,99.99
2023-01-31T01:38:22.301Z,99.99
2023-01-31T01:53:23.279Z,99.99
2023-01-31T02:08:23.856Z,99.99
2023-01-31T02:23:24.850Z,99.99
2023-01-31T02:38:25.461Z,99.99
2023-01-31T02:53:25.325Z,99.99
2023-01-31T03:08:25.832Z,99.99
2023-01-31T03:23:26.392Z,99.99
2023-01-31T03:38:27.088Z,99.99
2023-01-31T03:53:27.149Z,99.99
2023-01-31T04:08:27.830Z,99.99
2023-01-31T04:23:28.815Z,98.97
2023-01-31T04:38:29.043Z,96.53
2023-01-31T04:53:30.035Z,96.26
2023-01-31T05:08:30.246Z,93.68
2023-01-31T05:23:31.366Z,94.62
2023-01-31T05:38:44.003Z,97.65
2023-01-31T05:53:45.628Z,99.99
2023-01-31T06:08:46.302Z,99.99
2023-01-31T06:23:47.256Z,99.99
2023-01-31T06:38:47.479Z,99.99
2023-01-31T06:53:48.052Z,99.99
2023-01-31T07:08:48.673Z,99.28
2023-01-31T07:23:49.693Z,97.99
2023-01-31T07:38:49.889Z,97.37
2023-01-31T07:53:50.457Z,97.12
2023-01-31T08:08:51.077Z,91.62
2023-01-31T08:23:53.684Z,86.05
2023-01-31T08:38:53.863Z,83.84
2023-01-31T08:53:55.384Z,86.12
2023-01-31T09:08:56.051Z,89.40
2023-01-31T09:23:56.743Z,93.13
2023-01-31T09:38:57.318Z,98.69
2023-01-31T09:53:57.337Z,99.99
2023-01-31T10:08:57.965Z,99.99
2023-01-31T10:23:58.558Z,99.99
2023-01-31T10:38:58.697Z,99.99
2023-01-31T10:53:59.646Z,99.99
2023-01-31T11:08:59.764Z,99.99
2023-01-31T11:24:00.325Z,99.99
2023-01-31T11:39:00.542Z,99.99
2023-01-31T11:54:01.127Z,99.54
2023-01-31T12:09:01.234Z,95.54
2023-01-31T12:24:01.332Z,87.68
2023-01-31T12:39:01.844Z,71.15
2023-01-31T12:54:01.510Z,56.65
2023-01-31T13:09:08.249Z,48.80
2023-01-31T13:24:07.622Z,49.81
2023-01-31T13:39:07.730Z,50.02
2023-01-31T13:54:07.833Z,47.95
2023-01-31T14:09:08.438Z,45.26
2023-01-31T14:24:08.130Z,42.15
2023-01-31T14:39:08.721Z,39.04
2023-01-31T14:54:09.352Z,38.71
2023-01-31T15:09:10.332Z,39.54
2023-01-31T15:24:10.532Z,38.40
2023-01-31T15:39:10.664Z,36.96
2023-01-31T15:54:11.246Z,38.80
2023-01-31T16:09:12.265Z,39.22
2023-01-31T16:24:11.967Z,46.75
2023-01-31T16:39:12.050Z,52.54
2023-01-31T16:54:12.638Z,54.27
2023-01-31T17:09:12.705Z,47.88
2023-01-31T17:24:12.379Z,50.55
2023-01-31T17:39:12.470Z,51.92
2023-01-31T17:54:12.990Z,60.16
2023-01-31T18:09:12.833Z,68.61
2023-01-31T18:24:13.248Z,76.77
2023-01-31T18:39:12.959Z,82.93
2023-01-31T18:54:13.474Z,77.77
2023-01-31T19:09:13.705Z,97.36
2023-01-31T19:24:13.734Z,97.25
2023-01-31T19:39:13.814Z,97.97
2023-01-31T19:54:14.870Z,98.28
2023-01-31T20:09:14.922Z,96.78
2023-01-31T20:24:15.148Z,99.99
2023-01-31T20:39:15.267Z,99.99
2023-01-31T20:54:15.839Z,99.99
2023-01-31T21:09:15.597Z,98.64
2023-01-31T21:24:16.122Z,93.71
2023-01-31T21:39:16.235Z,88.44
2023-01-31T21:54:17.276Z,90.08
2023-01-31T22:09:17.482Z,82.53
2023-01-31T22:24:18.120Z,76.29
2023-01-31T22:39:18.185Z,78.55
2023-01-31T22:54:18.305Z,89.11
2023-01-31T23:09:18.851Z,87.71
2023-01-31T23:24:19.133Z,79.13
2023-01-31T23:39:19.616Z,84.60
2023-01-31T23:54:19.756Z,89.06
